Date,TemperatureHighF,TemperatureAvgF,TemperatureLowF,DewpointHighF,DewpointAvgF,DewpointLowF,HumidityHigh,HumidityAvg,HumidityLow,PressureMaxIn,PressureMinIn,WindSpeedMaxMPH,WindSpeedAvgMPH,GustSpeedMaxMPH,PrecipitationSumIn
2013-2-1,14,8,1,10,1,-5,90,77,62,30.12,29.88,0,0,0,0.00
2013-2-2,24,19,13,20,16,9,93,91,86,29.98,29.73,0,0,0,0.00
2013-2-3,22,15,9,15,9,3,88,79,64,29.85,29.73,0,0,0,0.00
2013-2-4,26,22,19,21,18,15,95,89,79,29.84,29.60,0,0,0,0.00
2013-2-5,29,25,18,27,21,15,95,89,75,29.83,29.57,0,0,0,0.01
2013-2-6,34,30,25,24,20,15,80,69,58,30.03,29.83,0,0,0,0.26
2013-2-7,40,33,29,33,27,23,98,83,64,29.93,29.59,0,0,0,0.21
2013-2-8,34,31,28,33,25,20,98,82,69,30.13,29.62,0,0,0,0.00
2013-2-9,35,29,21,24,21,16,90,76,65,30.17,29.90,0,0,0,0.01
2013-2-10,50,39,31,46,33,21,95,81,68,29.91,29.34,0,0,0,0.20
2013-2-11,49,34,29,45,24,19,85,68,60,29.78,29.35,0,0,0,0.00
2013-2-12,30,27,22,21,19,17,89,76,67,29.87,29.71,0,0,0,0.00
2013-2-13,44,31,20,30,24,17,94,80,55,29.72,29.49,0,0,0,0.00
2013-2-14,40,35,32,32,26,16,88,73,54,29.73,29.45,0,0,0,0.00
2013-2-15,32,27,22,25,16,9,89,68,50,29.93,29.73,0,0,0,0.00
2013-2-16,24,18,15,18,9,2,89,70,55,29.92,29.86,0,0,0,0.00
2013-2-17,28,21,13,12,8,2,81,61,37,30.00,29.88,0,0,0,0.01
2013-2-18,52,39,24,43,28,11,91,68,55,29.88,29.20,0,0,0,0.23
2013-2-19,34,18,13,32,11,4,93,79,68,29.90,29.28,0,0,0,0.07
2013-2-20,22,17,13,17,11,5,88,79,63,30.09,29.90,0,0,0,0.00
2013-2-21,26,24,21,18,17,14,86,78,73,30.13,29.78,0,0,0,0.00
2013-2-22,33,27,21,32,23,17,97,90,75,29.79,29.60,0,0,0,0.03
2013-2-23,27,26,24,22,18,14,85,76,64,29.73,29.67,0,0,0,0.00
2013-2-24,37,27,17,22,18,13,91,73,52,29.95,29.73,0,0,0,0.01
2013-2-25,40,32,21,25,22,18,92,73,53,29.96,29.75,0,0,0,0.00
2013-2-26,34,32,31,31,26,20,96,83,62,29.75,29.23,0,0,0,0.30
2013-2-27,34,32,32,33,30,30,98,97,94,29.40,29.24,0,0,0,0.54
2013-2-28,36,33,30,33,29,24,98,90,79,29.77,29.40,0,0,0,0.06